sensor_id;sensor_type;location;lat;lon;timestamp;P1;durP1;ratioP1;P2;durP2;ratioP2
11761;SDS011;5938;47.098;15.474;2022-09-30T00:01:35;21.13;;;15.77;;
11761;SDS011;5938;47.098;15.474;2022-09-30T00:05:40;18.73;;;15.97;;
11761;SDS011;5938;47.098;15.474;2022-09-30T00:09:43;25.80;;;17.73;;
11761;SDS011;5938;47.098;15.474;2022-09-30T00:13:48;22.80;;;16.50;;
11761;SDS011;5938;47.098;15.474;2022-09-30T00:17:54;19.47;;;15.80;;
11761;SDS011;5938;47.098;15.474;2022-09-30T00:21:59;19.80;;;16.70;;
11761;SDS011;5938;47.098;15.474;2022-09-30T00:26:04;19.20;;;14.87;;
11761;SDS011;5938;47.098;15.474;2022-09-30T00:30:10;19.53;;;15.00;;
11761;SDS011;5938;47.098;15.474;2022-09-30T00:34:15;21.20;;;15.90;;
11761;SDS011;5938;47.098;15.474;2022-09-30T00:38:19;18.80;;;15.07;;
11761;SDS011;5938;47.098;15.474;2022-09-30T00:42:23;19.50;;;15.80;;
11761;SDS011;5938;47.098;15.474;2022-09-30T00:46:31;18.07;;;14.07;;
11761;SDS011;5938;47.098;15.474;2022-09-30T00:50:46;21.30;;;16.33;;
11761;SDS011;5938;47.098;15.474;2022-09-30T00:54:56;21.50;;;14.90;;
11761;SDS011;5938;47.098;15.474;2022-09-30T00:59:03;22.40;;;16.77;;
11761;SDS011;5938;47.098;15.474;2022-09-30T01:03:09;20.00;;;16.03;;
11761;SDS011;5938;47.098;15.474;2022-09-30T01:07:14;18.60;;;14.70;;
11761;SDS011;5938;47.098;15.474;2022-09-30T01:11:17;18.63;;;13.33;;
11761;SDS011;5938;47.098;15.474;2022-09-30T01:15:22;19.80;;;14.30;;
11761;SDS011;5938;47.098;15.474;2022-09-30T01:24:26;17.30;;;13.83;;
11761;SDS011;5938;47.098;15.474;2022-09-30T01:29:05;17.97;;;13.17;;
11761;SDS011;5938;47.098;15.474;2022-09-30T01:33:34;16.20;;;13.10;;
11761;SDS011;5938;47.098;15.474;2022-09-30T01:37:45;14.47;;;12.23;;
11761;SDS011;5938;47.098;15.474;2022-09-30T01:41:58;19.73;;;14.13;;
11761;SDS011;5938;47.098;15.474;2022-09-30T01:46:14;16.60;;;12.30;;
11761;SDS011;5938;47.098;15.474;2022-09-30T01:50:23;19.40;;;13.00;;
11761;SDS011;5938;47.098;15.474;2022-09-30T01:54:32;19.30;;;11.80;;
11761;SDS011;5938;47.098;15.474;2022-09-30T01:58:43;28.33;;;13.37;;
11761;SDS011;5938;47.098;15.474;2022-09-30T02:02:54;15.13;;;11.57;;
11761;SDS011;5938;47.098;15.474;2022-09-30T02:07:04;14.67;;;11.67;;
11761;SDS011;5938;47.098;15.474;2022-09-30T02:11:11;17.20;;;12.50;;
11761;SDS011;5938;47.098;15.474;2022-09-30T02:15:19;18.30;;;12.93;;
11761;SDS011;5938;47.098;15.474;2022-09-30T02:19:28;15.83;;;11.43;;
11761;SDS011;5938;47.098;15.474;2022-09-30T02:23:37;19.33;;;12.07;;
11761;SDS011;5938;47.098;15.474;2022-09-30T02:27:45;14.53;;;11.03;;
11761;SDS011;5938;47.098;15.474;2022-09-30T02:31:54;11.37;;;10.17;;
11761;SDS011;5938;47.098;15.474;2022-09-30T02:36:03;14.17;;;10.13;;
11761;SDS011;5938;47.098;15.474;2022-09-30T02:40:12;13.87;;;9.77;;
11761;SDS011;5938;47.098;15.474;2022-09-30T02:44:20;12.40;;;9.37;;
11761;SDS011;5938;47.098;15.474;2022-09-30T02:48:25;14.07;;;10.23;;
11761;SDS011;5938;47.098;15.474;2022-09-30T02:52:35;13.10;;;10.40;;
11761;SDS011;5938;47.098;15.474;2022-09-30T02:56:50;11.60;;;9.20;;
11761;SDS011;5938;47.098;15.474;2022-09-30T03:00:56;14.20;;;10.20;;
11761;SDS011;5938;47.098;15.474;2022-09-30T03:05:00;12.40;;;9.70;;
11761;SDS011;5938;47.098;15.474;2022-09-30T03:09:04;15.87;;;11.87;;
11761;SDS011;5938;47.098;15.474;2022-09-30T03:13:14;16.57;;;14.83;;
11761;SDS011;5938;47.098;15.474;2022-09-30T03:17:48;11.23;;;10.13;;
11761;SDS011;5938;47.098;15.474;2022-09-30T03:22:19;17.63;;;12.63;;
11761;SDS011;5938;47.098;15.474;2022-09-30T03:26:39;14.70;;;11.13;;
11761;SDS011;5938;47.098;15.474;2022-09-30T03:31:00;15.07;;;9.73;;
11761;SDS011;5938;47.098;15.474;2022-09-30T03:35:12;12.33;;;10.87;;
11761;SDS011;5938;47.098;15.474;2022-09-30T03:39:21;11.07;;;9.13;;
11761;SDS011;5938;47.098;15.474;2022-09-30T03:43:29;20.00;;;10.23;;
11761;SDS011;5938;47.098;15.474;2022-09-30T03:47:36;15.37;;;11.60;;
11761;SDS011;5938;47.098;15.474;2022-09-30T03:51:45;21.00;;;13.80;;
11761;SDS011;5938;47.098;15.474;2022-09-30T03:55:51;15.47;;;11.43;;
11761;SDS011;5938;47.098;15.474;2022-09-30T03:59:54;15.10;;;11.70;;
11761;SDS011;5938;47.098;15.474;2022-09-30T04:04:00;17.27;;;11.47;;
11761;SDS011;5938;47.098;15.474;2022-09-30T04:08:04;17.77;;;12.00;;
11761;SDS011;5938;47.098;15.474;2022-09-30T04:12:08;19.27;;;12.50;;
11761;SDS011;5938;47.098;15.474;2022-09-30T04:16:11;21.90;;;11.77;;
11761;SDS011;5938;47.098;15.474;2022-09-30T04:20:16;16.33;;;11.70;;
11761;SDS011;5938;47.098;15.474;2022-09-30T04:24:19;19.90;;;13.10;;
11761;SDS011;5938;47.098;15.474;2022-09-30T04:28:24;16.07;;;11.47;;
11761;SDS011;5938;47.098;15.474;2022-09-30T04:32:27;17.50;;;11.67;;
11761;SDS011;5938;47.098;15.474;2022-09-30T04:36:36;19.87;;;13.00;;
11761;SDS011;5938;47.098;15.474;2022-09-30T04:40:40;16.30;;;10.50;;
11761;SDS011;5938;47.098;15.474;2022-09-30T04:44:43;18.67;;;11.47;;
11761;SDS011;5938;47.098;15.474;2022-09-30T04:48:46;18.73;;;12.60;;
11761;SDS011;5938;47.098;15.474;2022-09-30T04:52:52;18.03;;;11.73;;
11761;SDS011;5938;47.098;15.474;2022-09-30T04:56:56;17.47;;;11.70;;
11761;SDS011;5938;47.098;15.474;2022-09-30T05:01:00;16.83;;;10.77;;
11761;SDS011;5938;47.098;15.474;2022-09-30T05:05:04;19.30;;;12.00;;
11761;SDS011;5938;47.098;15.474;2022-09-30T05:09:10;16.23;;;10.63;;
11761;SDS011;5938;47.098;15.474;2022-09-30T05:13:13;13.70;;;10.50;;
11761;SDS011;5938;47.098;15.474;2022-09-30T05:17:17;18.80;;;11.10;;
11761;SDS011;5938;47.098;15.474;2022-09-30T05:21:20;16.73;;;11.87;;
11761;SDS011;5938;47.098;15.474;2022-09-30T05:25:25;13.23;;;11.27;;
11761;SDS011;5938;47.098;15.474;2022-09-30T05:29:28;15.83;;;11.23;;
11761;SDS011;5938;47.098;15.474;2022-09-30T05:33:32;17.47;;;11.70;;
11761;SDS011;5938;47.098;15.474;2022-09-30T05:37:36;16.30;;;11.20;;
11761;SDS011;5938;47.098;15.474;2022-09-30T05:41:41;18.73;;;13.17;;
11761;SDS011;5938;47.098;15.474;2022-09-30T05:45:50;17.10;;;13.30;;
11761;SDS011;5938;47.098;15.474;2022-09-30T05:49:54;18.90;;;15.90;;
11761;SDS011;5938;47.098;15.474;2022-09-30T05:53:57;20.30;;;17.30;;
11761;SDS011;5938;47.098;15.474;2022-09-30T05:58:02;15.70;;;12.30;;
11761;SDS011;5938;47.098;15.474;2022-09-30T06:02:07;15.43;;;12.37;;
11761;SDS011;5938;47.098;15.474;2022-09-30T06:06:10;16.77;;;14.17;;
11761;SDS011;5938;47.098;15.474;2022-09-30T06:10:14;12.00;;;10.63;;
11761;SDS011;5938;47.098;15.474;2022-09-30T06:14:19;14.73;;;10.50;;
11761;SDS011;5938;47.098;15.474;2022-09-30T06:18:24;11.63;;;7.90;;
11761;SDS011;5938;47.098;15.474;2022-09-30T06:22:27;10.77;;;9.67;;
11761;SDS011;5938;47.098;15.474;2022-09-30T06:26:31;9.77;;;7.83;;
11761;SDS011;5938;47.098;15.474;2022-09-30T06:30:35;9.70;;;7.67;;
11761;SDS011;5938;47.098;15.474;2022-09-30T06:34:39;8.77;;;7.50;;
11761;SDS011;5938;47.098;15.474;2022-09-30T06:38:42;9.73;;;8.63;;
11761;SDS011;5938;47.098;15.474;2022-09-30T06:42:46;10.87;;;7.97;;
11761;SDS011;5938;47.098;15.474;2022-09-30T06:46:51;13.20;;;10.37;;
11761;SDS011;5938;47.098;15.474;2022-09-30T06:50:56;15.80;;;11.70;;
11761;SDS011;5938;47.098;15.474;2022-09-30T06:55:02;9.57;;;8.20;;
11761;SDS011;5938;47.098;15.474;2022-09-30T06:59:06;11.67;;;8.53;;
11761;SDS011;5938;47.098;15.474;2022-09-30T07:03:23;12.70;;;9.03;;
11761;SDS011;5938;47.098;15.474;2022-09-30T07:07:29;24.57;;;20.07;;
11761;SDS011;5938;47.098;15.474;2022-09-30T07:11:36;10.70;;;9.60;;
11761;SDS011;5938;47.098;15.474;2022-09-30T07:15:40;19.93;;;16.10;;
11761;SDS011;5938;47.098;15.474;2022-09-30T07:19:46;16.20;;;13.90;;
11761;SDS011;5938;47.098;15.474;2022-09-30T07:23:52;15.30;;;13.70;;
11761;SDS011;5938;47.098;15.474;2022-09-30T07:27:58;10.30;;;8.53;;
11761;SDS011;5938;47.098;15.474;2022-09-30T07:32:01;9.70;;;8.80;;
11761;SDS011;5938;47.098;15.474;2022-09-30T07:36:07;9.77;;;8.77;;
11761;SDS011;5938;47.098;15.474;2022-09-30T07:40:11;11.63;;;9.50;;
11761;SDS011;5938;47.098;15.474;2022-09-30T07:44:16;8.87;;;7.67;;
11761;SDS011;5938;47.098;15.474;2022-09-30T07:48:20;10.10;;;8.37;;
11761;SDS011;5938;47.098;15.474;2022-09-30T07:52:48;7.90;;;7.10;;
11761;SDS011;5938;47.098;15.474;2022-09-30T07:56:52;7.53;;;6.70;;
11761;SDS011;5938;47.098;15.474;2022-09-30T08:01:10;9.60;;;8.50;;
11761;SDS011;5938;47.098;15.474;2022-09-30T08:05:14;7.63;;;6.90;;
11761;SDS011;5938;47.098;15.474;2022-09-30T08:09:20;10.40;;;8.20;;
11761;SDS011;5938;47.098;15.474;2022-09-30T08:13:25;20.07;;;14.40;;
11761;SDS011;5938;47.098;15.474;2022-09-30T08:17:29;10.10;;;9.00;;
11761;SDS011;5938;47.098;15.474;2022-09-30T08:21:32;7.70;;;7.00;;
11761;SDS011;5938;47.098;15.474;2022-09-30T08:25:38;5.63;;;4.30;;
11761;SDS011;5938;47.098;15.474;2022-09-30T08:29:42;4.13;;;3.70;;
11761;SDS011;5938;47.098;15.474;2022-09-30T08:34:05;4.50;;;4.10;;
11761;SDS011;5938;47.098;15.474;2022-09-30T08:38:09;5.67;;;4.70;;
11761;SDS011;5938;47.098;15.474;2022-09-30T08:42:17;5.97;;;5.47;;
11761;SDS011;5938;47.098;15.474;2022-09-30T08:46:51;6.00;;;5.40;;
11761;SDS011;5938;47.098;15.474;2022-09-30T08:51:04;6.40;;;5.90;;
11761;SDS011;5938;47.098;15.474;2022-09-30T08:55:18;6.87;;;6.27;;
11761;SDS011;5938;47.098;15.474;2022-09-30T08:59:28;8.20;;;6.60;;
11761;SDS011;5938;47.098;15.474;2022-09-30T09:03:36;7.67;;;7.00;;
11761;SDS011;5938;47.098;15.474;2022-09-30T09:07:42;7.30;;;6.60;;
11761;SDS011;5938;47.098;15.474;2022-09-30T09:11:58;5.20;;;4.80;;
11761;SDS011;5938;47.098;15.474;2022-09-30T09:16:15;4.10;;;3.70;;
11761;SDS011;5938;47.098;15.474;2022-09-30T09:20:27;5.30;;;4.13;;
11761;SDS011;5938;47.098;15.474;2022-09-30T09:24:36;4.23;;;3.93;;
11761;SDS011;5938;47.098;15.474;2022-09-30T09:28:44;4.13;;;3.83;;
11761;SDS011;5938;47.098;15.474;2022-09-30T09:33:01;7.60;;;5.27;;
11761;SDS011;5938;47.098;15.474;2022-09-30T09:37:23;8.23;;;6.10;;
11761;SDS011;5938;47.098;15.474;2022-09-30T09:41:48;4.40;;;4.00;;
11761;SDS011;5938;47.098;15.474;2022-09-30T09:46:04;3.30;;;2.90;;
11761;SDS011;5938;47.098;15.474;2022-09-30T09:50:16;5.57;;;3.90;;
11761;SDS011;5938;47.098;15.474;2022-09-30T09:54:23;18.30;;;11.97;;
11761;SDS011;5938;47.098;15.474;2022-09-30T09:58:31;6.90;;;3.23;;
11761;SDS011;5938;47.098;15.474;2022-09-30T10:02:35;10.07;;;6.00;;
11761;SDS011;5938;47.098;15.474;2022-09-30T10:06:43;3.53;;;2.03;;
11761;SDS011;5938;47.098;15.474;2022-09-30T10:10:53;7.87;;;4.53;;
11761;SDS011;5938;47.098;15.474;2022-09-30T10:15:04;11.53;;;6.30;;
11761;SDS011;5938;47.098;15.474;2022-09-30T10:19:24;2.77;;;2.53;;
11761;SDS011;5938;47.098;15.474;2022-09-30T10:23:32;3.20;;;1.77;;
11761;SDS011;5938;47.098;15.474;2022-09-30T10:27:39;6.90;;;3.80;;
11761;SDS011;5938;47.098;15.474;2022-09-30T10:31:55;1.90;;;1.80;;
11761;SDS011;5938;47.098;15.474;2022-09-30T10:36:07;1.90;;;1.70;;
11761;SDS011;5938;47.098;15.474;2022-09-30T10:40:15;2.93;;;2.67;;
11761;SDS011;5938;47.098;15.474;2022-09-30T10:44:22;5.20;;;2.20;;
11761;SDS011;5938;47.098;15.474;2022-09-30T10:48:26;7.00;;;6.30;;
11761;SDS011;5938;47.098;15.474;2022-09-30T10:52:33;2.50;;;2.30;;
11761;SDS011;5938;47.098;15.474;2022-09-30T10:56:43;2.80;;;2.60;;
11761;SDS011;5938;47.098;15.474;2022-09-30T11:00:48;2.57;;;2.37;;
11761;SDS011;5938;47.098;15.474;2022-09-30T11:04:58;1.70;;;1.60;;
11761;SDS011;5938;47.098;15.474;2022-09-30T11:09:05;2.20;;;2.00;;
11761;SDS011;5938;47.098;15.474;2022-09-30T11:13:16;1.67;;;1.57;;
11761;SDS011;5938;47.098;15.474;2022-09-30T11:17:27;3.33;;;2.53;;
11761;SDS011;5938;47.098;15.474;2022-09-30T11:21:36;2.63;;;1.60;;
11761;SDS011;5938;47.098;15.474;2022-09-30T11:25:44;1.90;;;1.80;;
11761;SDS011;5938;47.098;15.474;2022-09-30T11:30:00;1.90;;;1.70;;
11761;SDS011;5938;47.098;15.474;2022-09-30T11:34:17;2.80;;;1.90;;
11761;SDS011;5938;47.098;15.474;2022-09-30T11:38:38;1.80;;;1.40;;
11761;SDS011;5938;47.098;15.474;2022-09-30T11:42:51;3.00;;;1.77;;
11761;SDS011;5938;47.098;15.474;2022-09-30T11:47:31;1.80;;;1.20;;
11761;SDS011;5938;47.098;15.474;2022-09-30T11:51:48;2.07;;;1.60;;
11761;SDS011;5938;47.098;15.474;2022-09-30T11:56:03;2.00;;;1.90;;
11761;SDS011;5938;47.098;15.474;2022-09-30T12:00:14;1.83;;;1.73;;
11761;SDS011;5938;47.098;15.474;2022-09-30T12:04:23;2.33;;;1.70;;
11761;SDS011;5938;47.098;15.474;2022-09-30T12:08:32;2.07;;;1.97;;
11761;SDS011;5938;47.098;15.474;2022-09-30T12:12:39;3.13;;;1.80;;
11761;SDS011;5938;47.098;15.474;2022-09-30T12:16:43;1.80;;;1.70;;
11761;SDS011;5938;47.098;15.474;2022-09-30T12:20:52;2.40;;;2.20;;
11761;SDS011;5938;47.098;15.474;2022-09-30T12:24:58;1.90;;;1.80;;
11761;SDS011;5938;47.098;15.474;2022-09-30T12:29:06;2.63;;;1.80;;
11761;SDS011;5938;47.098;15.474;2022-09-30T12:38:03;2.27;;;2.07;;
11761;SDS011;5938;47.098;15.474;2022-09-30T12:42:43;2.13;;;1.93;;
11761;SDS011;5938;47.098;15.474;2022-09-30T12:47:09;1.47;;;1.37;;
11761;SDS011;5938;47.098;15.474;2022-09-30T12:51:25;1.37;;;1.27;;
11761;SDS011;5938;47.098;15.474;2022-09-30T12:55:36;1.73;;;1.63;;
11761;SDS011;5938;47.098;15.474;2022-09-30T12:59:44;1.40;;;1.30;;
11761;SDS011;5938;47.098;15.474;2022-09-30T13:04:08;1.50;;;1.33;;
11761;SDS011;5938;47.098;15.474;2022-09-30T13:08:23;1.50;;;1.40;;
11761;SDS011;5938;47.098;15.474;2022-09-30T13:12:50;1.80;;;1.70;;
11761;SDS011;5938;47.098;15.474;2022-09-30T13:17:22;2.83;;;1.43;;
11761;SDS011;5938;47.098;15.474;2022-09-30T13:21:28;2.07;;;1.50;;
11761;SDS011;5938;47.098;15.474;2022-09-30T13:25:51;2.30;;;1.57;;
11761;SDS011;5938;47.098;15.474;2022-09-30T13:29:58;2.57;;;1.47;;
11761;SDS011;5938;47.098;15.474;2022-09-30T13:34:04;2.30;;;1.57;;
11761;SDS011;5938;47.098;15.474;2022-09-30T13:38:15;2.17;;;2.03;;
11761;SDS011;5938;47.098;15.474;2022-09-30T13:42:21;1.80;;;1.70;;
11761;SDS011;5938;47.098;15.474;2022-09-30T13:46:31;2.20;;;1.53;;
11761;SDS011;5938;47.098;15.474;2022-09-30T13:50:42;1.67;;;1.50;;
11761;SDS011;5938;47.098;15.474;2022-09-30T13:54:48;1.57;;;1.47;;
11761;SDS011;5938;47.098;15.474;2022-09-30T13:59:04;1.83;;;1.73;;
11761;SDS011;5938;47.098;15.474;2022-09-30T14:03:32;1.37;;;1.27;;
11761;SDS011;5938;47.098;15.474;2022-09-30T14:07:47;1.90;;;1.80;;
11761;SDS011;5938;47.098;15.474;2022-09-30T14:12:11;1.90;;;1.70;;
11761;SDS011;5938;47.098;15.474;2022-09-30T14:16:39;4.60;;;1.73;;
11761;SDS011;5938;47.098;15.474;2022-09-30T14:21:21;1.70;;;1.60;;
11761;SDS011;5938;47.098;15.474;2022-09-30T14:25:36;1.83;;;1.60;;
11761;SDS011;5938;47.098;15.474;2022-09-30T14:29:53;2.87;;;2.27;;
11761;SDS011;5938;47.098;15.474;2022-09-30T14:34:07;3.00;;;2.13;;
11761;SDS011;5938;47.098;15.474;2022-09-30T14:38:15;2.47;;;2.27;;
11761;SDS011;5938;47.098;15.474;2022-09-30T14:42:24;11.97;;;2.50;;
11761;SDS011;5938;47.098;15.474;2022-09-30T14:46:36;2.00;;;1.90;;
11761;SDS011;5938;47.098;15.474;2022-09-30T14:50:43;3.17;;;2.40;;
11761;SDS011;5938;47.098;15.474;2022-09-30T14:54:52;2.70;;;2.40;;
11761;SDS011;5938;47.098;15.474;2022-09-30T14:58:55;2.60;;;2.10;;
11761;SDS011;5938;47.098;15.474;2022-09-30T15:02:59;2.70;;;2.50;;
11761;SDS011;5938;47.098;15.474;2022-09-30T15:07:03;7.20;;;2.13;;
11761;SDS011;5938;47.098;15.474;2022-09-30T15:11:17;4.30;;;1.90;;
11761;SDS011;5938;47.098;15.474;2022-09-30T15:15:31;3.53;;;3.23;;
11761;SDS011;5938;47.098;15.474;2022-09-30T15:19:42;3.67;;;2.93;;
11761;SDS011;5938;47.098;15.474;2022-09-30T15:23:46;3.07;;;2.87;;
11761;SDS011;5938;47.098;15.474;2022-09-30T15:27:54;2.73;;;2.37;;
11761;SDS011;5938;47.098;15.474;2022-09-30T15:31:59;6.00;;;2.57;;
11761;SDS011;5938;47.098;15.474;2022-09-30T15:36:06;5.13;;;4.00;;
11761;SDS011;5938;47.098;15.474;2022-09-30T15:40:16;3.93;;;3.63;;
11761;SDS011;5938;47.098;15.474;2022-09-30T15:44:52;8.67;;;7.90;;
11761;SDS011;5938;47.098;15.474;2022-09-30T15:48:58;4.23;;;3.93;;
11761;SDS011;5938;47.098;15.474;2022-09-30T15:53:04;3.67;;;3.20;;
11761;SDS011;5938;47.098;15.474;2022-09-30T16:01:46;3.13;;;2.83;;
11761;SDS011;5938;47.098;15.474;2022-09-30T16:05:52;5.30;;;4.80;;
11761;SDS011;5938;47.098;15.474;2022-09-30T16:10:01;6.90;;;6.40;;
11761;SDS011;5938;47.098;15.474;2022-09-30T16:14:09;5.30;;;4.63;;
11761;SDS011;5938;47.098;15.474;2022-09-30T16:18:20;4.13;;;3.83;;
11761;SDS011;5938;47.098;15.474;2022-09-30T16:22:32;3.90;;;3.27;;
11761;SDS011;5938;47.098;15.474;2022-09-30T16:26:52;4.23;;;3.90;;
11761;SDS011;5938;47.098;15.474;2022-09-30T16:30:56;5.13;;;3.80;;
11761;SDS011;5938;47.098;15.474;2022-09-30T16:35:01;9.07;;;4.20;;
11761;SDS011;5938;47.098;15.474;2022-09-30T16:39:05;4.93;;;3.70;;
11761;SDS011;5938;47.098;15.474;2022-09-30T16:43:10;6.00;;;3.97;;
11761;SDS011;5938;47.098;15.474;2022-09-30T16:47:14;5.80;;;4.03;;
11761;SDS011;5938;47.098;15.474;2022-09-30T16:51:19;6.80;;;4.60;;
11761;SDS011;5938;47.098;15.474;2022-09-30T16:55:23;6.23;;;4.30;;
11761;SDS011;5938;47.098;15.474;2022-09-30T16:59:27;4.93;;;4.53;;
11761;SDS011;5938;47.098;15.474;2022-09-30T17:03:32;4.63;;;4.17;;
11761;SDS011;5938;47.098;15.474;2022-09-30T17:07:37;8.03;;;5.57;;
11761;SDS011;5938;47.098;15.474;2022-09-30T17:11:41;5.27;;;4.77;;
11761;SDS011;5938;47.098;15.474;2022-09-30T17:15:48;5.53;;;4.43;;
11761;SDS011;5938;47.098;15.474;2022-09-30T17:19:53;6.37;;;5.70;;
11761;SDS011;5938;47.098;15.474;2022-09-30T17:23:58;6.00;;;4.83;;
11761;SDS011;5938;47.098;15.474;2022-09-30T17:28:01;4.37;;;3.97;;
11761;SDS011;5938;47.098;15.474;2022-09-30T17:32:05;5.63;;;3.97;;
11761;SDS011;5938;47.098;15.474;2022-09-30T17:36:10;6.07;;;4.60;;
11761;SDS011;5938;47.098;15.474;2022-09-30T17:40:16;5.07;;;4.63;;
11761;SDS011;5938;47.098;15.474;2022-09-30T17:44:38;5.20;;;4.70;;
11761;SDS011;5938;47.098;15.474;2022-09-30T17:48:53;6.37;;;5.10;;
11761;SDS011;5938;47.098;15.474;2022-09-30T17:52:59;8.03;;;6.37;;
11761;SDS011;5938;47.098;15.474;2022-09-30T17:57:09;6.60;;;5.90;;
11761;SDS011;5938;47.098;15.474;2022-09-30T18:01:12;7.13;;;5.13;;
11761;SDS011;5938;47.098;15.474;2022-09-30T18:05:17;6.67;;;6.00;;
11761;SDS011;5938;47.098;15.474;2022-09-30T18:09:20;6.80;;;5.80;;
11761;SDS011;5938;47.098;15.474;2022-09-30T18:13:26;7.10;;;6.40;;
11761;SDS011;5938;47.098;15.474;2022-09-30T18:17:31;9.80;;;7.37;;
11761;SDS011;5938;47.098;15.474;2022-09-30T18:21:35;7.83;;;7.10;;
11761;SDS011;5938;47.098;15.474;2022-09-30T18:25:40;8.97;;;8.03;;
11761;SDS011;5938;47.098;15.474;2022-09-30T18:29:45;8.33;;;7.53;;
11761;SDS011;5938;47.098;15.474;2022-09-30T18:33:50;7.37;;;6.77;;
11761;SDS011;5938;47.098;15.474;2022-09-30T18:38:00;9.93;;;7.90;;
11761;SDS011;5938;47.098;15.474;2022-09-30T18:42:04;8.13;;;7.37;;
11761;SDS011;5938;47.098;15.474;2022-09-30T18:46:09;9.40;;;8.37;;
11761;SDS011;5938;47.098;15.474;2022-09-30T18:50:14;11.43;;;8.67;;
11761;SDS011;5938;47.098;15.474;2022-09-30T18:54:18;9.03;;;8.17;;
11761;SDS011;5938;47.098;15.474;2022-09-30T18:58:22;10.47;;;9.47;;
11761;SDS011;5938;47.098;15.474;2022-09-30T19:02:29;10.33;;;9.17;;
11761;SDS011;5938;47.098;15.474;2022-09-30T19:06:37;9.37;;;8.57;;
11761;SDS011;5938;47.098;15.474;2022-09-30T19:10:46;10.97;;;9.87;;
11761;SDS011;5938;47.098;15.474;2022-09-30T19:14:53;31.07;;;27.57;;
11761;SDS011;5938;47.098;15.474;2022-09-30T19:19:01;56.57;;;50.70;;
11761;SDS011;5938;47.098;15.474;2022-09-30T19:23:08;19.30;;;17.40;;
11761;SDS011;5938;47.098;15.474;2022-09-30T19:27:13;24.30;;;16.87;;
11761;SDS011;5938;47.098;15.474;2022-09-30T19:31:23;13.53;;;12.13;;
11761;SDS011;5938;47.098;15.474;2022-09-30T19:35:31;12.40;;;11.17;;
11761;SDS011;5938;47.098;15.474;2022-09-30T19:39:41;10.10;;;9.20;;
11761;SDS011;5938;47.098;15.474;2022-09-30T19:43:49;11.40;;;8.33;;
11761;SDS011;5938;47.098;15.474;2022-09-30T19:47:54;8.60;;;6.97;;
11761;SDS011;5938;47.098;15.474;2022-09-30T19:52:01;8.47;;;7.67;;
11761;SDS011;5938;47.098;15.474;2022-09-30T19:56:19;7.90;;;7.10;;
11761;SDS011;5938;47.098;15.474;2022-09-30T20:00:24;11.00;;;9.90;;
11761;SDS011;5938;47.098;15.474;2022-09-30T20:04:33;8.37;;;7.57;;
11761;SDS011;5938;47.098;15.474;2022-09-30T20:08:40;8.57;;;7.87;;
11761;SDS011;5938;47.098;15.474;2022-09-30T20:12:46;9.47;;;8.47;;
11761;SDS011;5938;47.098;15.474;2022-09-30T20:16:57;9.20;;;8.37;;
11761;SDS011;5938;47.098;15.474;2022-09-30T20:21:00;10.60;;;7.23;;
11761;SDS011;5938;47.098;15.474;2022-09-30T20:25:10;8.03;;;7.37;;
11761;SDS011;5938;47.098;15.474;2022-09-30T20:29:14;7.83;;;7.10;;
11761;SDS011;5938;47.098;15.474;2022-09-30T20:33:23;17.70;;;16.00;;
11761;SDS011;5938;47.098;15.474;2022-09-30T20:37:27;12.13;;;10.33;;
11761;SDS011;5938;47.098;15.474;2022-09-30T20:41:33;10.03;;;9.03;;
11761;SDS011;5938;47.098;15.474;2022-09-30T20:45:39;9.33;;;8.20;;
11761;SDS011;5938;47.098;15.474;2022-09-30T20:49:42;9.43;;;8.53;;
11761;SDS011;5938;47.098;15.474;2022-09-30T20:53:48;9.03;;;8.07;;
11761;SDS011;5938;47.098;15.474;2022-09-30T20:57:54;10.50;;;8.30;;
11761;SDS011;5938;47.098;15.474;2022-09-30T21:01:57;8.70;;;7.90;;
11761;SDS011;5938;47.098;15.474;2022-09-30T21:06:01;7.80;;;7.13;;
11761;SDS011;5938;47.098;15.474;2022-09-30T21:10:05;10.40;;;7.97;;
11761;SDS011;5938;47.098;15.474;2022-09-30T21:14:10;8.43;;;7.63;;
11761;SDS011;5938;47.098;15.474;2022-09-30T21:18:13;9.27;;;8.40;;
11761;SDS011;5938;47.098;15.474;2022-09-30T21:22:17;8.17;;;7.37;;
11761;SDS011;5938;47.098;15.474;2022-09-30T21:26:22;7.93;;;6.87;;
11761;SDS011;5938;47.098;15.474;2022-09-30T21:30:27;9.23;;;8.43;;
11761;SDS011;5938;47.098;15.474;2022-09-30T21:34:31;8.57;;;7.70;;
11761;SDS011;5938;47.098;15.474;2022-09-30T21:38:36;8.37;;;7.50;;
11761;SDS011;5938;47.098;15.474;2022-09-30T21:42:39;8.63;;;7.83;;
11761;SDS011;5938;47.098;15.474;2022-09-30T21:46:44;8.13;;;7.40;;
11761;SDS011;5938;47.098;15.474;2022-09-30T21:50:50;9.70;;;8.27;;
11761;SDS011;5938;47.098;15.474;2022-09-30T21:54:54;9.10;;;8.23;;
11761;SDS011;5938;47.098;15.474;2022-09-30T21:58:57;8.60;;;7.80;;
11761;SDS011;5938;47.098;15.474;2022-09-30T22:03:02;8.87;;;7.60;;
11761;SDS011;5938;47.098;15.474;2022-09-30T22:07:06;9.37;;;8.37;;
11761;SDS011;5938;47.098;15.474;2022-09-30T22:11:10;9.80;;;8.80;;
11761;SDS011;5938;47.098;15.474;2022-09-30T22:15:16;9.20;;;8.00;;
11761;SDS011;5938;47.098;15.474;2022-09-30T22:19:21;9.73;;;8.73;;
11761;SDS011;5938;47.098;15.474;2022-09-30T22:23:24;9.43;;;8.50;;
11761;SDS011;5938;47.098;15.474;2022-09-30T22:27:29;9.03;;;8.20;;
11761;SDS011;5938;47.098;15.474;2022-09-30T22:31:33;10.70;;;9.07;;
11761;SDS011;5938;47.098;15.474;2022-09-30T22:35:38;11.17;;;10.10;;
11761;SDS011;5938;47.098;15.474;2022-09-30T22:40:00;9.97;;;9.13;;
11761;SDS011;5938;47.098;15.474;2022-09-30T22:44:04;10.40;;;9.40;;
11761;SDS011;5938;47.098;15.474;2022-09-30T22:48:08;9.93;;;8.83;;
11761;SDS011;5938;47.098;15.474;2022-09-30T22:52:13;11.07;;;10.00;;
11761;SDS011;5938;47.098;15.474;2022-09-30T22:56:17;11.17;;;9.37;;
11761;SDS011;5938;47.098;15.474;2022-09-30T23:00:22;10.23;;;9.17;;
11761;SDS011;5938;47.098;15.474;2022-09-30T23:04:26;10.63;;;9.63;;
11761;SDS011;5938;47.098;15.474;2022-09-30T23:08:31;12.50;;;10.50;;
11761;SDS011;5938;47.098;15.474;2022-09-30T23:12:41;11.40;;;9.80;;
11761;SDS011;5938;47.098;15.474;2022-09-30T23:16:45;10.90;;;9.90;;
11761;SDS011;5938;47.098;15.474;2022-09-30T23:20:52;12.83;;;10.50;;
11761;SDS011;5938;47.098;15.474;2022-09-30T23:24:58;12.20;;;9.00;;
11761;SDS011;5938;47.098;15.474;2022-09-30T23:29:03;12.17;;;10.00;;
11761;SDS011;5938;47.098;15.474;2022-09-30T23:33:08;11.80;;;10.63;;
11761;SDS011;5938;47.098;15.474;2022-09-30T23:37:12;11.50;;;9.70;;
11761;SDS011;5938;47.098;15.474;2022-09-30T23:41:17;11.93;;;10.43;;
11761;SDS011;5938;47.098;15.474;2022-09-30T23:45:21;13.60;;;10.87;;
11761;SDS011;5938;47.098;15.474;2022-09-30T23:49:24;14.60;;;10.63;;
11761;SDS011;5938;47.098;15.474;2022-09-30T23:53:28;14.40;;;11.70;;
11761;SDS011;5938;47.098;15.474;2022-09-30T23:57:34;12.77;;;11.10;;
